createdAt,value
2022-12-26T00:01:32.043Z,4.10
2022-12-26T00:03:42.679Z,4.17
2022-12-26T00:05:53.499Z,3.03
2022-12-26T00:08:04.062Z,3.37
2022-12-26T00:10:12.707Z,3.87
2022-12-26T00:12:21.642Z,6.73
2022-12-26T00:14:31.803Z,3.37
2022-12-26T00:16:42.283Z,3.87
2022-12-26T00:18:52.633Z,3.47
2022-12-26T00:21:03.597Z,5.33
2022-12-26T00:23:14.741Z,3.37
2022-12-26T00:25:23.617Z,3.63
2022-12-26T00:27:32.943Z,4.10
2022-12-26T00:29:42.339Z,4.53
2022-12-26T00:31:53.694Z,4.63
2022-12-26T00:34:06.038Z,4.33
2022-12-26T00:36:18.532Z,4.83
2022-12-26T00:38:27.946Z,3.60
2022-12-26T00:40:36.721Z,6.67
2022-12-26T00:42:45.867Z,5.93
2022-12-26T00:44:54.871Z,4.30
2022-12-26T00:47:04.030Z,5.47
2022-12-26T00:49:13.237Z,5.03
2022-12-26T00:51:24.875Z,4.93
2022-12-26T00:53:36.377Z,4.80
2022-12-26T00:55:47.808Z,3.97
2022-12-26T00:57:56.456Z,5.33
2022-12-26T01:00:06.313Z,3.17
2022-12-26T01:02:29.187Z,4.73
2022-12-26T01:04:39.605Z,5.07
2022-12-26T01:06:52.960Z,5.00
2022-12-26T01:09:01.976Z,6.53
2022-12-26T01:11:12.128Z,4.43
2022-12-26T01:13:21.380Z,5.33
2022-12-26T01:15:30.662Z,5.23
2022-12-26T01:17:39.703Z,6.87
2022-12-26T01:19:48.612Z,3.90
2022-12-26T01:22:06.119Z,4.73
2022-12-26T01:24:15.684Z,4.03
2022-12-26T01:26:24.386Z,5.00
2022-12-26T01:28:33.532Z,5.00
2022-12-26T01:30:42.744Z,5.80
2022-12-26T01:32:51.464Z,5.27
2022-12-26T01:35:01.004Z,4.43
2022-12-26T01:37:13.324Z,5.43
2022-12-26T01:39:22.324Z,5.73
2022-12-26T01:41:33.649Z,4.27
2022-12-26T01:43:56.951Z,5.03
2022-12-26T01:46:06.062Z,5.37
2022-12-26T01:48:18.623Z,5.17
2022-12-26T01:50:32.883Z,5.90
2022-12-26T01:52:49.496Z,8.57
2022-12-26T01:54:59.282Z,4.60
2022-12-26T01:57:11.037Z,5.83
2022-12-26T01:59:21.331Z,4.57
2022-12-26T02:01:33.875Z,5.17
2022-12-26T02:04:04.103Z,5.57
2022-12-26T02:06:13.344Z,6.83
2022-12-26T02:08:25.542Z,5.10
2022-12-26T02:10:38.865Z,6.20
2022-12-26T02:12:49.002Z,5.60
2022-12-26T02:14:59.969Z,7.77
2022-12-26T02:17:11.352Z,6.80
2022-12-26T02:19:25.896Z,7.07
2022-12-26T02:21:49.827Z,7.43
2022-12-26T02:24:17.421Z,6.57
2022-12-26T02:26:48.169Z,6.83
2022-12-26T02:29:17.900Z,7.47
2022-12-26T02:31:38.166Z,7.97
2022-12-26T02:33:52.506Z,6.67
2022-12-26T02:36:11.923Z,5.70
2022-12-26T02:38:28.500Z,4.07
2022-12-26T02:40:48.479Z,5.73
2022-12-26T02:43:02.045Z,5.13
2022-12-26T02:45:34.536Z,6.07
2022-12-26T02:47:51.075Z,10.43
2022-12-26T02:50:22.113Z,5.63
2022-12-26T02:52:50.902Z,7.27
2022-12-26T02:55:20.575Z,7.40
2022-12-26T02:57:51.658Z,7.87
2022-12-26T03:00:20.737Z,4.50
2022-12-26T03:02:51.455Z,7.27
2022-12-26T03:05:23.925Z,4.07
2022-12-26T03:07:52.602Z,4.00
2022-12-26T03:10:20.616Z,6.57
2022-12-26T03:12:53.081Z,4.90
2022-12-26T03:15:06.923Z,5.00
2022-12-26T03:17:21.825Z,7.13
2022-12-26T03:19:33.558Z,5.53
2022-12-26T03:21:48.115Z,3.53
2022-12-26T03:24:00.156Z,6.17
2022-12-26T03:26:29.757Z,5.57
2022-12-26T03:28:44.365Z,5.27
2022-12-26T03:30:52.635Z,5.20
2022-12-26T03:33:01.962Z,5.30
2022-12-26T03:35:13.595Z,4.80
2022-12-26T03:37:50.427Z,4.70
2022-12-26T03:40:23.973Z,5.57
2022-12-26T03:42:53.907Z,7.73
2022-12-26T03:45:23.479Z,4.93
2022-12-26T03:47:56.091Z,7.63
2022-12-26T03:50:28.867Z,7.93
2022-12-26T03:52:58.348Z,8.30
2022-12-26T03:55:30.867Z,6.83
2022-12-26T03:58:00.377Z,7.93
2022-12-26T04:00:28.008Z,7.07
2022-12-26T04:02:51.683Z,7.13
2022-12-26T04:05:21.354Z,9.43
2022-12-26T04:07:56.028Z,7.47
2022-12-26T04:10:26.385Z,8.07
2022-12-26T04:12:54.697Z,8.50
2022-12-26T04:15:32.032Z,7.00
2022-12-26T04:18:00.452Z,8.90
2022-12-26T04:20:14.011Z,6.83
2022-12-26T04:22:43.307Z,6.83
2022-12-26T04:25:19.183Z,9.77
2022-12-26T04:27:49.403Z,6.30
2022-12-26T04:30:18.768Z,6.77
2022-12-26T04:32:54.558Z,7.67
2022-12-26T04:35:23.615Z,9.70
2022-12-26T04:37:52.226Z,7.50
2022-12-26T04:40:20.669Z,7.77
2022-12-26T04:42:47.240Z,10.37
2022-12-26T04:45:15.515Z,11.20
2022-12-26T04:47:26.969Z,7.67
2022-12-26T04:50:17.265Z,9.40
2022-12-26T04:52:53.586Z,8.27
2022-12-26T04:55:02.782Z,9.67
2022-12-26T04:57:18.079Z,6.83
2022-12-26T04:59:27.902Z,7.80
2022-12-26T05:01:54.329Z,6.87
2022-12-26T05:04:22.375Z,12.00
2022-12-26T05:06:52.027Z,7.40
2022-12-26T05:09:18.425Z,8.70
2022-12-26T05:11:27.622Z,7.40
2022-12-26T05:13:36.325Z,7.77
2022-12-26T05:16:00.407Z,5.93
2022-12-26T05:18:26.852Z,5.60
2022-12-26T05:20:58.639Z,8.53
2022-12-26T05:23:25.401Z,7.47
2022-12-26T05:25:55.034Z,5.90
2022-12-26T05:28:22.815Z,6.47
2022-12-26T05:30:32.408Z,5.87
2022-12-26T05:33:03.089Z,5.90
2022-12-26T05:35:12.565Z,5.30
2022-12-26T05:37:25.037Z,5.13
2022-12-26T05:39:37.335Z,8.30
2022-12-26T05:41:49.150Z,8.67
2022-12-26T05:44:02.247Z,9.13
2022-12-26T05:46:11.635Z,6.60
2022-12-26T05:48:22.170Z,6.70
2022-12-26T05:50:32.935Z,9.77
2022-12-26T05:52:46.333Z,7.33
2022-12-26T05:54:55.566Z,7.27
2022-12-26T05:57:04.945Z,8.20
2022-12-26T05:59:14.576Z,8.77
2022-12-26T06:01:24.079Z,8.00
2022-12-26T06:03:33.032Z,11.27
2022-12-26T06:05:43.457Z,9.57
2022-12-26T06:07:54.639Z,8.37
2022-12-26T06:10:13.076Z,9.10
2022-12-26T06:12:23.168Z,8.97
2022-12-26T06:14:32.448Z,6.70
2022-12-26T06:16:42.245Z,7.33
2022-12-26T06:18:52.768Z,8.60
2022-12-26T06:21:02.030Z,8.17
2022-12-26T06:23:13.095Z,6.60
2022-12-26T06:25:30.896Z,7.07
2022-12-26T06:27:45.502Z,7.27
2022-12-26T06:29:57.846Z,7.50
2022-12-26T06:32:07.659Z,7.70
2022-12-26T06:34:18.636Z,8.50
2022-12-26T06:36:28.536Z,9.80
2022-12-26T06:38:41.539Z,7.63
2022-12-26T06:40:50.327Z,7.90
2022-12-26T06:42:59.265Z,10.27
2022-12-26T06:45:09.018Z,9.17
2022-12-26T06:47:18.344Z,8.37
2022-12-26T06:49:32.701Z,7.70
2022-12-26T06:51:45.312Z,10.80
2022-12-26T06:53:57.076Z,8.40
2022-12-26T06:56:09.766Z,9.00
2022-12-26T06:58:19.119Z,7.67
2022-12-26T07:00:34.830Z,8.60
2022-12-26T07:02:44.924Z,9.87
2022-12-26T07:05:01.141Z,7.60
2022-12-26T07:07:12.855Z,8.97
2022-12-26T07:09:27.046Z,12.30
2022-12-26T07:11:40.910Z,8.90
2022-12-26T07:13:51.989Z,10.63
2022-12-26T07:16:04.846Z,8.07
2022-12-26T07:18:16.691Z,8.83
2022-12-26T07:20:25.799Z,10.80
2022-12-26T07:22:36.687Z,11.27
2022-12-26T07:24:47.045Z,8.57
2022-12-26T07:26:57.364Z,10.17
2022-12-26T07:29:08.147Z,6.07
2022-12-26T07:31:20.924Z,8.10
2022-12-26T07:33:30.427Z,7.73
2022-12-26T07:35:42.029Z,6.27
2022-12-26T07:37:51.726Z,10.20
2022-12-26T07:40:02.531Z,7.43
2022-12-26T07:42:11.842Z,6.87
2022-12-26T07:44:20.835Z,8.13
2022-12-26T07:46:29.715Z,6.43
2022-12-26T07:48:39.044Z,6.17
2022-12-26T07:50:50.576Z,9.80
2022-12-26T07:53:01.487Z,6.27
2022-12-26T07:55:12.729Z,6.90
2022-12-26T07:57:47.378Z,6.77
2022-12-26T07:59:58.861Z,7.47
2022-12-26T08:02:08.498Z,7.50
2022-12-26T08:04:17.843Z,5.50
2022-12-26T08:06:29.278Z,4.97
2022-12-26T08:08:39.036Z,5.47
2022-12-26T08:10:51.754Z,5.97
2022-12-26T08:13:01.415Z,6.17
2022-12-26T08:15:11.939Z,6.90
2022-12-26T08:17:21.445Z,5.90
2022-12-26T08:19:30.711Z,9.77
2022-12-26T08:21:39.628Z,6.17
2022-12-26T08:23:48.843Z,5.20
2022-12-26T08:25:59.365Z,4.77
2022-12-26T08:28:10.538Z,6.00
2022-12-26T08:30:19.744Z,6.80
2022-12-26T08:32:31.766Z,6.20
2022-12-26T08:34:45.190Z,5.43
2022-12-26T08:36:54.395Z,6.53
2022-12-26T08:39:08.512Z,8.17
2022-12-26T08:41:21.015Z,6.77
2022-12-26T08:44:16.538Z,6.43
2022-12-26T08:46:21.780Z,7.20
2022-12-26T08:48:34.796Z,6.43
2022-12-26T08:51:09.050Z,6.57
2022-12-26T08:53:19.334Z,5.70
2022-12-26T08:55:28.318Z,7.00
2022-12-26T08:57:42.438Z,10.40
2022-12-26T09:00:07.219Z,7.93
2022-12-26T09:02:16.566Z,7.40
2022-12-26T09:04:30.104Z,8.07
2022-12-26T09:06:40.155Z,5.07
2022-12-26T09:08:49.554Z,6.13
2022-12-26T09:10:58.525Z,5.73
2022-12-26T09:13:09.872Z,8.03
2022-12-26T09:15:20.544Z,7.70
2022-12-26T09:17:30.225Z,5.97
2022-12-26T09:19:40.336Z,5.97
2022-12-26T09:22:17.415Z,6.67
2022-12-26T09:24:30.021Z,10.03
2022-12-26T09:26:40.291Z,7.30
2022-12-26T09:28:51.776Z,6.10
2022-12-26T09:31:02.443Z,8.20
2022-12-26T09:33:23.239Z,7.13
2022-12-26T09:35:32.726Z,8.60
2022-12-26T09:37:42.222Z,10.87
2022-12-26T09:40:07.395Z,7.87
2022-12-26T09:42:33.852Z,7.00
2022-12-26T09:44:53.052Z,10.77
2022-12-26T09:47:10.787Z,7.67
2022-12-26T09:49:41.356Z,11.10
2022-12-26T09:51:51.687Z,9.00
2022-12-26T09:54:02.086Z,12.57
2022-12-26T09:57:01.729Z,15.60
2022-12-26T09:59:16.899Z,15.40
2022-12-26T10:01:55.195Z,12.57
2022-12-26T10:04:08.221Z,16.70
2022-12-26T10:06:20.992Z,15.17
2022-12-26T10:08:50.804Z,19.80
2022-12-26T10:11:04.663Z,14.77
2022-12-26T10:13:23.958Z,19.63
2022-12-26T10:15:42.580Z,17.33
2022-12-26T10:18:07.824Z,20.50
2022-12-26T10:20:24.751Z,22.00
2022-12-26T10:22:46.676Z,18.83
2022-12-26T10:24:57.216Z,19.97
2022-12-26T10:27:18.204Z,23.43
2022-12-26T10:29:33.480Z,23.40
2022-12-26T10:32:15.415Z,22.53
2022-12-26T10:34:45.218Z,23.20
2022-12-26T10:37:05.402Z,26.57
2022-12-26T10:39:19.527Z,25.03
2022-12-26T10:41:36.635Z,24.40
2022-12-26T10:43:55.520Z,23.20
2022-12-26T10:46:26.725Z,22.47
2022-12-26T10:48:47.679Z,15.07
2022-12-26T10:51:23.454Z,22.87
2022-12-26T10:53:39.177Z,22.97
2022-12-26T10:55:49.788Z,27.63
2022-12-26T10:58:08.374Z,27.10
2022-12-26T11:00:22.207Z,22.93
2022-12-26T11:02:35.480Z,26.50
2022-12-26T11:07:34.047Z,23.27
2022-12-26T11:09:50.256Z,21.60
2022-12-26T11:12:05.167Z,24.73
2022-12-26T11:14:33.757Z,27.63
2022-12-26T11:16:51.015Z,23.13
2022-12-26T11:19:03.896Z,28.30
2022-12-26T11:21:26.095Z,20.67
2022-12-26T11:23:38.763Z,20.67
2022-12-26T11:26:17.165Z,27.87
2022-12-26T11:28:44.163Z,28.37
2022-12-26T11:31:05.666Z,23.93
2022-12-26T11:33:28.988Z,21.53
2022-12-26T11:36:10.883Z,24.80
2022-12-26T11:38:45.509Z,22.73
2022-12-26T11:41:13.324Z,29.77
2022-12-26T11:43:32.526Z,25.00
2022-12-26T11:45:52.728Z,27.73
2022-12-26T11:48:11.632Z,20.60
2022-12-26T11:50:30.846Z,20.00
2022-12-26T11:54:06.660Z,24.20
2022-12-26T11:55:43.923Z,21.43
2022-12-26T11:58:14.099Z,21.00
2022-12-26T12:00:35.219Z,19.70
2022-12-26T12:03:47.006Z,21.73
2022-12-26T12:06:09.438Z,23.33
2022-12-26T12:09:05.362Z,24.03
2022-12-26T12:11:36.555Z,19.10
2022-12-26T12:16:54.371Z,21.90
2022-12-26T12:19:41.337Z,20.10
2022-12-26T12:22:42.158Z,18.60
2022-12-26T12:25:00.108Z,14.53
2022-12-26T12:28:24.059Z,18.77
2022-12-26T12:30:14.893Z,16.53
2022-12-26T12:32:30.384Z,15.23
2022-12-26T12:35:39.426Z,16.23
2022-12-26T12:41:49.325Z,18.70
2022-12-26T12:44:22.978Z,15.13
2022-12-26T12:47:13.914Z,17.13
2022-12-26T12:49:39.799Z,18.17
2022-12-26T12:52:22.700Z,6.57
2022-12-26T12:54:57.283Z,15.23
2022-12-26T12:57:15.572Z,16.40
2022-12-26T12:59:38.914Z,21.43
2022-12-26T13:01:49.301Z,16.20
2022-12-26T13:04:01.593Z,16.70
2022-12-26T13:06:19.053Z,15.03
2022-12-26T13:08:33.601Z,15.47
2022-12-26T13:10:50.494Z,15.60
2022-12-26T13:13:01.728Z,14.23
2022-12-26T13:15:30.003Z,14.93
2022-12-26T13:17:50.225Z,20.27
2022-12-26T13:20:07.323Z,15.83
2022-12-26T13:22:22.367Z,18.70
2022-12-26T13:24:37.906Z,14.53
2022-12-26T13:26:53.063Z,16.07
2022-12-26T13:29:18.706Z,15.83
2022-12-26T13:31:42.544Z,11.67
2022-12-26T13:33:58.641Z,20.97
2022-12-26T13:36:15.654Z,16.93
2022-12-26T13:38:27.745Z,15.23
2022-12-26T13:40:43.982Z,15.87
2022-12-26T13:43:22.618Z,19.00
2022-12-26T13:46:02.691Z,15.37
2022-12-26T13:49:10.716Z,13.77
2022-12-26T13:54:17.835Z,17.97
2022-12-26T13:56:53.105Z,14.53
2022-12-26T13:59:07.866Z,19.87
2022-12-26T14:01:55.270Z,19.73
2022-12-26T14:04:23.229Z,19.03
2022-12-26T14:07:12.135Z,17.93
2022-12-26T14:09:38.180Z,20.50
2022-12-26T14:12:03.253Z,15.40
2022-12-26T14:14:28.863Z,16.67
2022-12-26T14:16:47.675Z,14.53
2022-12-26T14:19:13.059Z,18.47
2022-12-26T14:21:56.386Z,20.43
2022-12-26T14:24:17.544Z,15.97
2022-12-26T14:26:44.820Z,19.17
2022-12-26T14:29:23.987Z,17.93
2022-12-26T14:31:53.940Z,21.97
2022-12-26T14:37:38.334Z,20.27
2022-12-26T14:40:13.097Z,23.90
2022-12-26T14:42:48.660Z,19.83
2022-12-26T14:45:18.342Z,17.30
2022-12-26T14:48:01.206Z,20.13
2022-12-26T14:50:40.606Z,24.93
2022-12-26T14:54:05.567Z,20.97
2022-12-26T14:55:51.391Z,18.07
2022-12-26T14:58:24.180Z,20.20
2022-12-26T15:00:49.238Z,22.87
2022-12-26T15:03:34.663Z,23.77
2022-12-26T15:06:12.361Z,21.90
2022-12-26T15:08:34.028Z,22.10
2022-12-26T15:11:22.326Z,22.23
2022-12-26T15:13:55.056Z,21.27
2022-12-26T15:16:17.259Z,23.37
2022-12-26T15:18:53.096Z,23.70
2022-12-26T15:21:39.107Z,24.47
2022-12-26T15:24:17.860Z,20.13
2022-12-26T15:27:16.815Z,21.37
2022-12-26T15:30:05.181Z,17.13
2022-12-26T15:32:50.166Z,21.30
2022-12-26T15:35:15.851Z,21.43
2022-12-26T15:38:21.203Z,22.90
2022-12-26T15:40:55.182Z,13.37
2022-12-26T15:43:30.432Z,21.03
2022-12-26T15:45:57.857Z,24.27
2022-12-26T15:48:27.717Z,15.73
2022-12-26T15:50:56.797Z,19.50
2022-12-26T15:53:38.047Z,17.67
2022-12-26T15:56:31.179Z,20.10
2022-12-26T15:59:14.953Z,17.57
2022-12-26T16:02:07.813Z,19.47
2022-12-26T16:04:39.474Z,18.77
2022-12-26T16:07:24.356Z,21.57
2022-12-26T16:10:08.015Z,17.87
2022-12-26T16:12:41.162Z,19.40
2022-12-26T16:15:24.405Z,13.60
2022-12-26T16:17:35.581Z,22.03
2022-12-26T16:19:53.067Z,22.43
2022-12-26T16:22:22.721Z,17.40
2022-12-26T16:24:59.243Z,21.27
2022-12-26T16:27:36.882Z,21.07
2022-12-26T16:30:59.178Z,18.57
2022-12-26T16:32:47.335Z,20.17
2022-12-26T16:35:26.660Z,19.33
2022-12-26T16:38:03.336Z,21.60
2022-12-26T16:40:18.406Z,20.40
2022-12-26T16:42:41.142Z,20.50
2022-12-26T16:45:02.093Z,21.70
2022-12-26T16:47:18.656Z,20.97
2022-12-26T16:50:05.915Z,19.07
2022-12-26T16:52:46.775Z,16.17
2022-12-26T16:55:12.347Z,15.77
2022-12-26T16:58:17.306Z,21.23
2022-12-26T17:00:35.172Z,23.30
2022-12-26T17:02:58.102Z,21.40
2022-12-26T17:05:09.045Z,22.50
2022-12-26T17:07:19.264Z,24.07
2022-12-26T17:09:29.677Z,13.53
2022-12-26T17:11:41.989Z,20.77
2022-12-26T17:13:56.125Z,14.10
2022-12-26T17:16:11.595Z,20.57
2022-12-26T17:18:50.803Z,23.20
2022-12-26T17:21:17.649Z,24.53
2022-12-26T17:23:40.484Z,24.77
2022-12-26T17:25:50.991Z,26.50
2022-12-26T17:28:19.019Z,24.13
2022-12-26T17:30:30.011Z,21.47
2022-12-26T17:32:43.012Z,27.17
2022-12-26T17:34:52.448Z,25.77
2022-12-26T17:37:18.946Z,27.67
2022-12-26T17:39:32.125Z,25.23
2022-12-26T17:41:56.985Z,26.83
2022-12-26T17:44:29.863Z,22.30
2022-12-26T17:46:42.398Z,30.17
2022-12-26T17:49:12.484Z,24.40
2022-12-26T17:51:52.151Z,24.87
2022-12-26T17:54:20.371Z,23.60
2022-12-26T17:56:33.972Z,25.57
2022-12-26T17:58:44.711Z,25.37
2022-12-26T18:01:05.969Z,24.97
2022-12-26T18:03:23.133Z,20.37
2022-12-26T18:08:16.404Z,24.70
2022-12-26T18:11:03.455Z,26.87
2022-12-26T18:13:29.885Z,20.10
2022-12-26T18:15:57.060Z,27.73
2022-12-26T18:18:23.264Z,25.73
2022-12-26T18:20:46.567Z,25.23
2022-12-26T18:23:03.198Z,23.90
2022-12-26T18:25:21.154Z,19.17
2022-12-26T18:27:33.816Z,20.70
2022-12-26T18:29:46.895Z,24.60
2022-12-26T18:32:02.224Z,23.60
2022-12-26T18:34:33.334Z,11.17
2022-12-26T18:37:10.343Z,18.07
2022-12-26T18:39:27.799Z,16.17
2022-12-26T18:41:41.966Z,17.93
2022-12-26T18:43:58.134Z,19.93
2022-12-26T18:46:22.545Z,19.90
2022-12-26T18:48:34.666Z,21.73
2022-12-26T18:50:47.450Z,22.07
2022-12-26T18:53:21.957Z,20.47
2022-12-26T18:55:48.775Z,17.20
2022-12-26T18:58:06.676Z,21.40
2022-12-26T19:00:21.063Z,20.17
2022-12-26T19:02:38.882Z,20.17
2022-12-26T19:05:00.518Z,22.60
2022-12-26T19:07:11.091Z,18.80
2022-12-26T19:09:26.075Z,18.40
2022-12-26T19:11:55.375Z,22.13
2022-12-26T19:14:07.936Z,16.27
2022-12-26T19:16:24.382Z,18.80
2022-12-26T19:19:03.206Z,13.00
2022-12-26T19:21:21.031Z,19.33
2022-12-26T19:23:40.370Z,17.83
2022-12-26T19:26:04.017Z,20.60
2022-12-26T19:28:32.478Z,21.67
2022-12-26T19:30:54.947Z,23.37
2022-12-26T19:33:09.304Z,12.50
2022-12-26T19:35:20.475Z,15.97
2022-12-26T19:37:43.514Z,14.27
2022-12-26T19:39:55.101Z,16.07
2022-12-26T19:42:31.278Z,14.37
2022-12-26T19:44:51.300Z,14.23
2022-12-26T19:47:15.063Z,12.00
2022-12-26T19:49:33.426Z,12.93
2022-12-26T19:51:43.241Z,11.40
2022-12-26T19:53:54.803Z,10.90
2022-12-26T19:56:25.558Z,12.50
2022-12-26T19:58:44.981Z,10.23
2022-12-26T20:00:58.254Z,9.27
2022-12-26T20:03:12.206Z,9.70
2022-12-26T20:05:45.991Z,11.37
2022-12-26T20:07:57.993Z,10.00
2022-12-26T20:10:11.374Z,10.60
2022-12-26T20:12:23.277Z,10.73
2022-12-26T20:14:40.025Z,8.37
2022-12-26T20:17:09.615Z,6.83
2022-12-26T20:19:39.370Z,8.53
2022-12-26T20:21:48.772Z,8.97
2022-12-26T20:24:00.966Z,7.50
2022-12-26T20:26:18.533Z,6.23
2022-12-26T20:28:35.967Z,6.70
2022-12-26T20:30:46.868Z,7.20
2022-12-26T20:33:12.996Z,7.23
2022-12-26T20:35:39.989Z,5.33
2022-12-26T20:37:59.664Z,5.90
2022-12-26T20:40:19.767Z,7.10
2022-12-26T20:42:32.792Z,5.47
2022-12-26T20:44:45.959Z,7.03
2022-12-26T20:47:05.230Z,5.77
2022-12-26T20:49:19.318Z,7.10
2022-12-26T20:51:36.931Z,8.40
2022-12-26T20:53:51.420Z,7.87
2022-12-26T20:56:12.538Z,4.97
2022-12-26T20:58:48.446Z,6.63
2022-12-26T21:01:07.972Z,4.17
2022-12-26T21:03:26.471Z,4.00
2022-12-26T21:05:55.272Z,4.53
2022-12-26T21:08:08.790Z,4.27
2022-12-26T21:10:30.928Z,4.30
2022-12-26T21:12:44.148Z,4.07
2022-12-26T21:15:03.616Z,3.23
2022-12-26T21:17:18.948Z,3.20
2022-12-26T21:19:29.872Z,3.20
2022-12-26T21:21:44.743Z,3.93
2022-12-26T21:24:10.147Z,4.67
2022-12-26T21:26:36.453Z,5.23
2022-12-26T21:28:48.269Z,3.87
2022-12-26T21:31:17.744Z,2.53
2022-12-26T21:33:39.072Z,3.47
2022-12-26T21:35:53.616Z,3.33
2022-12-26T21:38:01.603Z,2.67
2022-12-26T21:40:13.023Z,2.63
2022-12-26T21:42:23.917Z,2.60
2022-12-26T21:44:33.826Z,3.30
2022-12-26T21:46:43.067Z,3.70
2022-12-26T21:48:55.639Z,2.60
2022-12-26T21:51:05.481Z,2.90
2022-12-26T21:53:21.084Z,2.57
2022-12-26T21:55:31.182Z,2.97
2022-12-26T21:57:42.631Z,1.90
2022-12-26T22:00:04.711Z,2.07
2022-12-26T22:02:41.550Z,2.30
2022-12-26T22:05:20.093Z,3.20
2022-12-26T22:07:41.780Z,2.03
2022-12-26T22:10:42.003Z,2.10
2022-12-26T22:16:14.646Z,3.10
2022-12-26T22:18:57.925Z,1.90
2022-12-26T22:21:22.485Z,3.00
2022-12-26T22:23:33.262Z,1.80
2022-12-26T22:25:57.325Z,2.00
2022-12-26T22:28:16.552Z,1.97
2022-12-26T22:30:37.014Z,2.27
2022-12-26T22:32:59.659Z,2.53
2022-12-26T22:35:18.667Z,2.37
2022-12-26T22:37:38.346Z,3.40
2022-12-26T22:39:51.811Z,1.37
2022-12-26T22:42:06.560Z,1.53
2022-12-26T22:44:19.676Z,2.63
2022-12-26T22:46:35.052Z,2.40
2022-12-26T22:48:46.243Z,1.10
2022-12-26T22:51:07.370Z,1.20
2022-12-26T22:53:42.160Z,1.53
2022-12-26T22:56:03.717Z,1.13
2022-12-26T22:58:59.722Z,1.50
2022-12-26T23:01:18.436Z,1.17
2022-12-26T23:03:34.623Z,1.03
2022-12-26T23:05:52.279Z,1.30
2022-12-26T23:08:19.946Z,1.03
2022-12-26T23:10:30.473Z,0.73
2022-12-26T23:12:47.395Z,2.43
2022-12-26T23:14:59.435Z,3.63
2022-12-26T23:17:12.000Z,1.33
2022-12-26T23:19:43.427Z,1.60
2022-12-26T23:21:51.427Z,1.73
2022-12-26T23:24:04.905Z,1.70
2022-12-26T23:26:14.079Z,1.87
2022-12-26T23:28:51.605Z,1.30
2022-12-26T23:31:08.789Z,1.20
2022-12-26T23:33:19.242Z,1.83
2022-12-26T23:35:28.808Z,1.20
2022-12-26T23:37:41.624Z,1.47
2022-12-26T23:39:54.124Z,1.40
2022-12-26T23:42:04.191Z,1.60
2022-12-26T23:45:23.332Z,1.80
2022-12-26T23:47:10.869Z,1.43
2022-12-26T23:49:20.757Z,2.40
2022-12-26T23:51:30.536Z,2.77
2022-12-26T23:53:43.242Z,2.73
2022-12-26T23:55:55.252Z,3.43
2022-12-26T23:58:06.668Z,3.33
